sensor_id;sensor_type;location;lat;lon;timestamp;temperature;humidity
13796;SHT30;40911;51.552;9.874;2023-04-03T00:00:36;2.24;82.20
13796;SHT30;40911;51.552;9.874;2023-04-03T00:02:58;2.21;82.02
13796;SHT30;40911;51.552;9.874;2023-04-03T00:05:19;2.03;82.80
13796;SHT30;40911;51.552;9.874;2023-04-03T00:07:41;2.06;82.73
13796;SHT30;40911;51.552;9.874;2023-04-03T00:10:03;2.13;82.51
13796;SHT30;40911;51.552;9.874;2023-04-03T00:12:26;1.96;82.55
13796;SHT30;40911;51.552;9.874;2023-04-03T00:14:48;1.99;82.80
13796;SHT30;40911;51.552;9.874;2023-04-03T00:17:10;1.65;83.90
13796;SHT30;40911;51.552;9.874;2023-04-03T00:19:31;1.68;83.90
13796;SHT30;40911;51.552;9.874;2023-04-03T00:21:53;1.69;83.35
13796;SHT30;40911;51.552;9.874;2023-04-03T00:24:14;1.62;83.87
13796;SHT30;40911;51.552;9.874;2023-04-03T00:26:36;1.54;84.26
13796;SHT30;40911;51.552;9.874;2023-04-03T00:28:59;1.31;84.71
13796;SHT30;40911;51.552;9.874;2023-04-03T00:31:20;1.45;84.96
13796;SHT30;40911;51.552;9.874;2023-04-03T00:33:42;1.45;84.21
13796;SHT30;40911;51.552;9.874;2023-04-03T00:36:07;1.41;84.68
13796;SHT30;40911;51.552;9.874;2023-04-03T00:38:29;1.08;85.62
13796;SHT30;40911;51.552;9.874;2023-04-03T00:40:51;1.24;85.11
13796;SHT30;40911;51.552;9.874;2023-04-03T00:43:14;1.16;85.29
13796;SHT30;40911;51.552;9.874;2023-04-03T00:45:39;1.24;85.35
13796;SHT30;40911;51.552;9.874;2023-04-03T00:48:04;1.30;84.93
13796;SHT30;40911;51.552;9.874;2023-04-03T00:50:27;0.99;85.69
13796;SHT30;40911;51.552;9.874;2023-04-03T00:52:49;1.13;85.53
13796;SHT30;40911;51.552;9.874;2023-04-03T00:55:12;1.01;85.75
13796;SHT30;40911;51.552;9.874;2023-04-03T00:57:34;1.10;85.52
13796;SHT30;40911;51.552;9.874;2023-04-03T00:59:57;0.86;86.60
13796;SHT30;40911;51.552;9.874;2023-04-03T01:02:22;1.00;85.98
13796;SHT30;40911;51.552;9.874;2023-04-03T01:04:44;1.11;85.30
13796;SHT30;40911;51.552;9.874;2023-04-03T01:07:09;1.07;85.48
13796;SHT30;40911;51.552;9.874;2023-04-03T01:09:31;1.19;84.81
13796;SHT30;40911;51.552;9.874;2023-04-03T01:11:54;1.08;85.10
13796;SHT30;40911;51.552;9.874;2023-04-03T01:14:15;0.96;85.39
13796;SHT30;40911;51.552;9.874;2023-04-03T01:16:37;0.84;86.33
13796;SHT30;40911;51.552;9.874;2023-04-03T01:19:01;1.07;85.19
13796;SHT30;40911;51.552;9.874;2023-04-03T01:21:49;0.92;85.44
13796;SHT30;40911;51.552;9.874;2023-04-03T01:24:33;1.07;85.03
13796;SHT30;40911;51.552;9.874;2023-04-03T01:26:55;0.94;85.41
13796;SHT30;40911;51.552;9.874;2023-04-03T01:29:16;0.80;85.78
13796;SHT30;40911;51.552;9.874;2023-04-03T01:31:48;0.92;85.94
13796;SHT30;40911;51.552;9.874;2023-04-03T01:34:10;0.79;85.97
13796;SHT30;40911;51.552;9.874;2023-04-03T01:36:32;0.82;86.15
13796;SHT30;40911;51.552;9.874;2023-04-03T01:38:54;0.76;86.27
13796;SHT30;40911;51.552;9.874;2023-04-03T01:41:16;0.76;86.14
13796;SHT30;40911;51.552;9.874;2023-04-03T01:43:37;0.72;85.98
13796;SHT30;40911;51.552;9.874;2023-04-03T01:45:59;0.73;86.24
13796;SHT30;40911;51.552;9.874;2023-04-03T01:48:22;0.51;86.70
13796;SHT30;40911;51.552;9.874;2023-04-03T01:50:44;0.66;86.49
13796;SHT30;40911;51.552;9.874;2023-04-03T01:53:06;0.77;85.64
13796;SHT30;40911;51.552;9.874;2023-04-03T01:55:27;0.72;85.62
13796;SHT30;40911;51.552;9.874;2023-04-03T01:57:49;0.59;86.27
13796;SHT30;40911;51.552;9.874;2023-04-03T02:00:11;0.44;86.87
13796;SHT30;40911;51.552;9.874;2023-04-03T02:02:33;0.63;86.28
13796;SHT30;40911;51.552;9.874;2023-04-03T02:04:56;0.45;86.75
13796;SHT30;40911;51.552;9.874;2023-04-03T02:07:18;0.48;86.72
13796;SHT30;40911;51.552;9.874;2023-04-03T02:09:39;0.55;86.39
13796;SHT30;40911;51.552;9.874;2023-04-03T02:12:01;0.40;87.04
13796;SHT30;40911;51.552;9.874;2023-04-03T02:14:23;0.42;86.65
13796;SHT30;40911;51.552;9.874;2023-04-03T02:16:44;0.35;86.88
13796;SHT30;40911;51.552;9.874;2023-04-03T02:19:06;0.41;86.70
13796;SHT30;40911;51.552;9.874;2023-04-03T02:21:29;0.34;86.65
13796;SHT30;40911;51.552;9.874;2023-04-03T02:23:50;0.33;86.78
13796;SHT30;40911;51.552;9.874;2023-04-03T02:26:14;0.30;86.71
13796;SHT30;40911;51.552;9.874;2023-04-03T02:28:36;0.25;86.87
13796;SHT30;40911;51.552;9.874;2023-04-03T02:30:57;0.34;86.65
13796;SHT30;40911;51.552;9.874;2023-04-03T02:33:19;0.23;87.10
13796;SHT30;40911;51.552;9.874;2023-04-03T02:35:41;0.33;86.55
13796;SHT30;40911;51.552;9.874;2023-04-03T02:38:03;0.35;86.36
13796;SHT30;40911;51.552;9.874;2023-04-03T02:40:25;0.31;86.37
13796;SHT30;40911;51.552;9.874;2023-04-03T02:42:47;0.28;86.42
13796;SHT30;40911;51.552;9.874;2023-04-03T02:45:09;0.21;86.78
13796;SHT30;40911;51.552;9.874;2023-04-03T02:47:31;0.16;86.72
13796;SHT30;40911;51.552;9.874;2023-04-03T02:49:52;0.13;86.68
13796;SHT30;40911;51.552;9.874;2023-04-03T02:52:14;0.00;87.51
13796;SHT30;40911;51.552;9.874;2023-04-03T02:54:37;0.06;87.07
13796;SHT30;40911;51.552;9.874;2023-04-03T02:56:59;0.03;87.17
13796;SHT30;40911;51.552;9.874;2023-04-03T02:59:21;0.09;86.89
13796;SHT30;40911;51.552;9.874;2023-04-03T03:01:42;-0.18;87.71
13796;SHT30;40911;51.552;9.874;2023-04-03T03:04:04;-0.17;88.00
13796;SHT30;40911;51.552;9.874;2023-04-03T03:06:26;-0.21;87.71
13796;SHT30;40911;51.552;9.874;2023-04-03T03:08:47;-0.11;87.21
13796;SHT30;40911;51.552;9.874;2023-04-03T03:11:10;-0.30;88.30
13796;SHT30;40911;51.552;9.874;2023-04-03T03:13:32;-0.17;87.37
13796;SHT30;40911;51.552;9.874;2023-04-03T03:15:54;-0.27;87.67
13796;SHT30;40911;51.552;9.874;2023-04-03T03:18:16;-0.28;88.06
13796;SHT30;40911;51.552;9.874;2023-04-03T03:20:38;-0.34;88.00
13796;SHT30;40911;51.552;9.874;2023-04-03T03:22:59;-0.37;87.98
13796;SHT30;40911;51.552;9.874;2023-04-03T03:25:21;-0.30;87.83
13796;SHT30;40911;51.552;9.874;2023-04-03T03:27:44;-0.38;87.63
13796;SHT30;40911;51.552;9.874;2023-04-03T03:30:07;-0.56;88.30
13796;SHT30;40911;51.552;9.874;2023-04-03T03:32:28;-0.56;88.82
13796;SHT30;40911;51.552;9.874;2023-04-03T03:34:50;-0.61;89.06
13796;SHT30;40911;51.552;9.874;2023-04-03T03:37:12;-0.55;88.89
13796;SHT30;40911;51.552;9.874;2023-04-03T03:39:33;-0.59;89.36
13796;SHT30;40911;51.552;9.874;2023-04-03T03:41:55;-0.42;88.20
13796;SHT30;40911;51.552;9.874;2023-04-03T03:44:18;-0.44;88.06
13796;SHT30;40911;51.552;9.874;2023-04-03T03:46:39;-0.58;88.50
13796;SHT30;40911;51.552;9.874;2023-04-03T03:49:01;-0.46;87.97
13796;SHT30;40911;51.552;9.874;2023-04-03T03:51:22;-0.70;88.69
13796;SHT30;40911;51.552;9.874;2023-04-03T03:53:44;-0.58;88.27
13796;SHT30;40911;51.552;9.874;2023-04-03T03:56:06;-0.48;87.99
13796;SHT30;40911;51.552;9.874;2023-04-03T03:58:27;-0.63;88.38
13796;SHT30;40911;51.552;9.874;2023-04-03T04:00:50;-0.62;88.43
13796;SHT30;40911;51.552;9.874;2023-04-03T04:03:12;-0.63;88.35
13796;SHT30;40911;51.552;9.874;2023-04-03T04:05:34;-0.79;88.80
13796;SHT30;40911;51.552;9.874;2023-04-03T04:07:55;-0.80;88.74
13796;SHT30;40911;51.552;9.874;2023-04-03T04:10:17;-0.72;88.69
13796;SHT30;40911;51.552;9.874;2023-04-03T04:12:38;-0.82;88.98
13796;SHT30;40911;51.552;9.874;2023-04-03T04:15:00;-0.72;88.61
13796;SHT30;40911;51.552;9.874;2023-04-03T04:17:23;-0.83;89.12
13796;SHT30;40911;51.552;9.874;2023-04-03T04:19:45;-1.01;89.47
13796;SHT30;40911;51.552;9.874;2023-04-03T04:22:07;-1.06;89.86
13796;SHT30;40911;51.552;9.874;2023-04-03T04:24:30;-0.94;89.36
13796;SHT30;40911;51.552;9.874;2023-04-03T04:26:51;-0.80;88.71
13796;SHT30;40911;51.552;9.874;2023-04-03T04:29:13;-0.83;88.75
13796;SHT30;40911;51.552;9.874;2023-04-03T04:31:34;-0.82;88.59
13796;SHT30;40911;51.552;9.874;2023-04-03T04:33:57;-0.86;88.65
13796;SHT30;40911;51.552;9.874;2023-04-03T04:36:19;-0.93;88.75
13796;SHT30;40911;51.552;9.874;2023-04-03T04:38:41;-0.91;88.44
13796;SHT30;40911;51.552;9.874;2023-04-03T04:41:02;-0.83;88.37
13796;SHT30;40911;51.552;9.874;2023-04-03T04:43:24;-0.99;88.46
13796;SHT30;40911;51.552;9.874;2023-04-03T04:45:46;-1.09;88.97
13796;SHT30;40911;51.552;9.874;2023-04-03T04:48:08;-1.01;89.17
13796;SHT30;40911;51.552;9.874;2023-04-03T04:50:31;-1.09;89.13
13796;SHT30;40911;51.552;9.874;2023-04-03T04:52:52;-1.07;89.11
13796;SHT30;40911;51.552;9.874;2023-04-03T04:55:14;-1.13;89.32
13796;SHT30;40911;51.552;9.874;2023-04-03T04:57:35;-1.11;88.93
13796;SHT30;40911;51.552;9.874;2023-04-03T04:59:58;-1.23;89.67
13796;SHT30;40911;51.552;9.874;2023-04-03T05:02:20;-1.14;88.99
13796;SHT30;40911;51.552;9.874;2023-04-03T05:04:42;-1.04;88.59
13796;SHT30;40911;51.552;9.874;2023-04-03T05:07:05;-1.31;89.56
13796;SHT30;40911;51.552;9.874;2023-04-03T05:09:26;-1.16;88.97
13796;SHT30;40911;51.552;9.874;2023-04-03T05:11:48;-1.14;89.40
13796;SHT30;40911;51.552;9.874;2023-04-03T05:14:09;-1.10;88.89
13796;SHT30;40911;51.552;9.874;2023-04-03T05:16:31;-1.16;89.06
13796;SHT30;40911;51.552;9.874;2023-04-03T05:18:52;-1.31;89.52
13796;SHT30;40911;51.552;9.874;2023-04-03T05:21:14;-1.11;89.03
13796;SHT30;40911;51.552;9.874;2023-04-03T05:23:37;-1.14;88.97
13796;SHT30;40911;51.552;9.874;2023-04-03T05:25:58;-1.16;89.17
13796;SHT30;40911;51.552;9.874;2023-04-03T05:28:20;-1.17;89.02
13796;SHT30;40911;51.552;9.874;2023-04-03T05:30:41;-1.16;89.16
13796;SHT30;40911;51.552;9.874;2023-04-03T05:33:03;-1.01;88.70
13796;SHT30;40911;51.552;9.874;2023-04-03T05:35:25;-1.06;88.88
13796;SHT30;40911;51.552;9.874;2023-04-03T05:37:47;-0.97;88.89
13796;SHT30;40911;51.552;9.874;2023-04-03T05:40:10;-0.86;88.55
13796;SHT30;40911;51.552;9.874;2023-04-03T05:42:32;-0.72;88.03
13796;SHT30;40911;51.552;9.874;2023-04-03T05:44:53;-0.65;88.06
13796;SHT30;40911;51.552;9.874;2023-04-03T05:47:15;-0.63;88.01
13796;SHT30;40911;51.552;9.874;2023-04-03T05:49:37;-0.59;87.85
13796;SHT30;40911;51.552;9.874;2023-04-03T05:52:01;-0.56;88.15
13796;SHT30;40911;51.552;9.874;2023-04-03T05:54:24;-0.45;88.25
13796;SHT30;40911;51.552;9.874;2023-04-03T05:56:47;-0.28;87.89
13796;SHT30;40911;51.552;9.874;2023-04-03T05:59:09;-0.28;87.96
13796;SHT30;40911;51.552;9.874;2023-04-03T06:01:31;-0.15;87.91
13796;SHT30;40911;51.552;9.874;2023-04-03T06:03:52;0.00;87.56
13796;SHT30;40911;51.552;9.874;2023-04-03T06:06:14;0.11;87.58
13796;SHT30;40911;51.552;9.874;2023-04-03T06:08:36;0.03;87.09
13796;SHT30;40911;51.552;9.874;2023-04-03T06:10:58;0.23;87.23
13796;SHT30;40911;51.552;9.874;2023-04-03T06:13:21;0.31;87.10
13796;SHT30;40911;51.552;9.874;2023-04-03T06:15:44;0.44;86.99
13796;SHT30;40911;51.552;9.874;2023-04-03T06:18:06;0.58;86.49
13796;SHT30;40911;51.552;9.874;2023-04-03T06:20:28;0.59;86.00
13796;SHT30;40911;51.552;9.874;2023-04-03T06:22:51;0.90;86.06
13796;SHT30;40911;51.552;9.874;2023-04-03T06:25:13;1.11;85.44
13796;SHT30;40911;51.552;9.874;2023-04-03T06:27:34;1.31;85.06
13796;SHT30;40911;51.552;9.874;2023-04-03T06:29:57;1.45;83.85
13796;SHT30;40911;51.552;9.874;2023-04-03T06:32:19;1.49;83.76
13796;SHT30;40911;51.552;9.874;2023-04-03T06:34:40;1.63;82.89
13796;SHT30;40911;51.552;9.874;2023-04-03T06:37:02;1.72;82.89
13796;SHT30;40911;51.552;9.874;2023-04-03T06:39:24;1.99;82.73
13796;SHT30;40911;51.552;9.874;2023-04-03T06:41:46;2.27;82.39
13796;SHT30;40911;51.552;9.874;2023-04-03T06:44:07;2.45;81.19
13796;SHT30;40911;51.552;9.874;2023-04-03T06:46:32;2.45;80.51
13796;SHT30;40911;51.552;9.874;2023-04-03T06:48:54;2.45;80.25
13796;SHT30;40911;51.552;9.874;2023-04-03T06:51:17;2.66;80.51
13796;SHT30;40911;51.552;9.874;2023-04-03T06:53:40;2.96;80.06
13796;SHT30;40911;51.552;9.874;2023-04-03T06:56:02;3.04;79.59
13796;SHT30;40911;51.552;9.874;2023-04-03T06:58:24;3.06;79.15
13796;SHT30;40911;51.552;9.874;2023-04-03T07:00:46;3.03;79.44
13796;SHT30;40911;51.552;9.874;2023-04-03T07:03:09;3.14;78.50
13796;SHT30;40911;51.552;9.874;2023-04-03T07:05:30;3.40;78.84
13796;SHT30;40911;51.552;9.874;2023-04-03T07:07:52;3.48;78.29
13796;SHT30;40911;51.552;9.874;2023-04-03T07:10:14;3.79;78.05
13796;SHT30;40911;51.552;9.874;2023-04-03T07:12:35;4.10;77.87
13796;SHT30;40911;51.552;9.874;2023-04-03T07:14:57;3.90;75.78
13796;SHT30;40911;51.552;9.874;2023-04-03T07:17:19;3.86;76.87
13796;SHT30;40911;51.552;9.874;2023-04-03T07:19:42;3.48;75.46
13796;SHT30;40911;51.552;9.874;2023-04-03T07:22:04;3.69;75.43
13796;SHT30;40911;51.552;9.874;2023-04-03T07:24:25;3.75;74.23
13796;SHT30;40911;51.552;9.874;2023-04-03T07:26:48;4.01;74.33
13796;SHT30;40911;51.552;9.874;2023-04-03T07:29:10;4.24;74.17
13796;SHT30;40911;51.552;9.874;2023-04-03T07:31:31;4.17;73.59
13796;SHT30;40911;51.552;9.874;2023-04-03T07:33:54;4.11;73.65
13796;SHT30;40911;51.552;9.874;2023-04-03T07:36:17;4.44;73.59
13796;SHT30;40911;51.552;9.874;2023-04-03T07:38:39;4.58;72.80
13796;SHT30;40911;51.552;9.874;2023-04-03T07:41:01;4.48;73.00
13796;SHT30;40911;51.552;9.874;2023-04-03T07:43:23;4.42;73.04
13796;SHT30;40911;51.552;9.874;2023-04-03T07:45:45;4.89;72.19
13796;SHT30;40911;51.552;9.874;2023-04-03T07:48:10;4.00;71.65
13796;SHT30;40911;51.552;9.874;2023-04-03T07:50:31;4.73;71.17
13796;SHT30;40911;51.552;9.874;2023-04-03T07:52:54;4.99;71.08
13796;SHT30;40911;51.552;9.874;2023-04-03T07:55:17;4.41;69.74
13796;SHT30;40911;51.552;9.874;2023-04-03T07:57:39;4.34;70.81
13796;SHT30;40911;51.552;9.874;2023-04-03T08:00:01;4.69;71.18
13796;SHT30;40911;51.552;9.874;2023-04-03T08:02:23;4.59;68.87
13796;SHT30;40911;51.552;9.874;2023-04-03T08:04:44;4.49;67.47
13796;SHT30;40911;51.552;9.874;2023-04-03T08:07:06;4.11;65.77
13796;SHT30;40911;51.552;9.874;2023-04-03T08:09:29;4.48;65.61
13796;SHT30;40911;51.552;9.874;2023-04-03T08:11:51;4.48;65.80
13796;SHT30;40911;51.552;9.874;2023-04-03T08:14:13;4.41;65.27
13796;SHT30;40911;51.552;9.874;2023-04-03T08:16:38;4.27;66.46
13796;SHT30;40911;51.552;9.874;2023-04-03T08:19:00;4.97;66.78
13796;SHT30;40911;51.552;9.874;2023-04-03T08:21:21;5.07;65.36
13796;SHT30;40911;51.552;9.874;2023-04-03T08:23:43;5.56;65.28
13796;SHT30;40911;51.552;9.874;2023-04-03T08:26:07;4.80;65.23
13796;SHT30;40911;51.552;9.874;2023-04-03T08:28:29;5.25;64.31
13796;SHT30;40911;51.552;9.874;2023-04-03T08:30:51;4.48;65.09
13796;SHT30;40911;51.552;9.874;2023-04-03T08:33:14;4.21;66.82
13796;SHT30;40911;51.552;9.874;2023-04-03T08:35:38;4.35;66.69
13796;SHT30;40911;51.552;9.874;2023-04-03T08:38:00;4.48;65.76
13796;SHT30;40911;51.552;9.874;2023-04-03T08:40:22;4.34;67.18
13796;SHT30;40911;51.552;9.874;2023-04-03T08:42:59;4.00;65.52
13796;SHT30;40911;51.552;9.874;2023-04-03T08:45:40;3.94;65.32
13796;SHT30;40911;51.552;9.874;2023-04-03T08:48:05;3.87;65.89
13796;SHT30;40911;51.552;9.874;2023-04-03T08:50:31;3.83;66.02
13796;SHT30;40911;51.552;9.874;2023-04-03T08:52:57;3.89;65.22
13796;SHT30;40911;51.552;9.874;2023-04-03T08:55:23;4.09;64.09
13796;SHT30;40911;51.552;9.874;2023-04-03T08:57:46;4.34;62.46
13796;SHT30;40911;51.552;9.874;2023-04-03T09:00:18;5.16;63.37
13796;SHT30;40911;51.552;9.874;2023-04-03T09:02:43;4.31;63.42
13796;SHT30;40911;51.552;9.874;2023-04-03T09:05:11;4.24;65.37
13796;SHT30;40911;51.552;9.874;2023-04-03T09:07:38;4.28;65.08
13796;SHT30;40911;51.552;9.874;2023-04-03T09:10:01;4.14;64.97
13796;SHT30;40911;51.552;9.874;2023-04-03T09:12:25;3.99;65.59
13796;SHT30;40911;51.552;9.874;2023-04-03T09:14:57;4.10;65.48
13796;SHT30;40911;51.552;9.874;2023-04-03T09:17:24;4.07;65.72
13796;SHT30;40911;51.552;9.874;2023-04-03T09:19:54;4.61;65.69
13796;SHT30;40911;51.552;9.874;2023-04-03T09:22:20;4.04;64.79
13796;SHT30;40911;51.552;9.874;2023-04-03T09:24:45;4.04;65.96
13796;SHT30;40911;51.552;9.874;2023-04-03T09:27:09;4.24;65.85
13796;SHT30;40911;51.552;9.874;2023-04-03T09:29:35;3.90;65.71
13796;SHT30;40911;51.552;9.874;2023-04-03T09:32:01;3.73;65.20
13796;SHT30;40911;51.552;9.874;2023-04-03T09:34:26;4.24;65.09
13796;SHT30;40911;51.552;9.874;2023-04-03T09:36:50;4.16;64.06
13796;SHT30;40911;51.552;9.874;2023-04-03T09:39:14;4.25;63.30
13796;SHT30;40911;51.552;9.874;2023-04-03T09:41:36;4.21;63.58
13796;SHT30;40911;51.552;9.874;2023-04-03T09:43:58;4.35;62.62
13796;SHT30;40911;51.552;9.874;2023-04-03T09:46:29;4.37;61.24
13796;SHT30;40911;51.552;9.874;2023-04-03T09:48:52;5.38;61.60
13796;SHT30;40911;51.552;9.874;2023-04-03T09:51:17;5.66;59.18
13796;SHT30;40911;51.552;9.874;2023-04-03T09:53:41;6.03;59.28
13796;SHT30;40911;51.552;9.874;2023-04-03T09:56:05;6.31;58.94
13796;SHT30;40911;51.552;9.874;2023-04-03T09:58:40;6.13;59.44
13796;SHT30;40911;51.552;9.874;2023-04-03T10:01:04;5.82;59.36
13796;SHT30;40911;51.552;9.874;2023-04-03T10:03:29;5.65;60.36
13796;SHT30;40911;51.552;9.874;2023-04-03T10:05:51;5.34;60.64
13796;SHT30;40911;51.552;9.874;2023-04-03T10:08:23;5.62;61.00
13796;SHT30;40911;51.552;9.874;2023-04-03T10:10:47;5.38;60.98
13796;SHT30;40911;51.552;9.874;2023-04-03T10:13:11;4.99;60.65
13796;SHT30;40911;51.552;9.874;2023-04-03T10:15:38;5.14;61.41
13796;SHT30;40911;51.552;9.874;2023-04-03T10:18:03;5.08;61.03
13796;SHT30;40911;51.552;9.874;2023-04-03T10:20:33;5.00;61.31
13796;SHT30;40911;51.552;9.874;2023-04-03T10:23:06;4.78;60.71
13796;SHT30;40911;51.552;9.874;2023-04-03T10:25:40;4.93;62.22
13796;SHT30;40911;51.552;9.874;2023-04-03T10:28:05;4.86;62.26
13796;SHT30;40911;51.552;9.874;2023-04-03T10:30:36;5.18;62.22
13796;SHT30;40911;51.552;9.874;2023-04-03T10:33:09;5.17;62.11
13796;SHT30;40911;51.552;9.874;2023-04-03T10:35:42;5.30;61.93
13796;SHT30;40911;51.552;9.874;2023-04-03T10:38:11;4.96;61.93
13796;SHT30;40911;51.552;9.874;2023-04-03T10:40:39;4.95;61.44
13796;SHT30;40911;51.552;9.874;2023-04-03T10:43:09;4.69;62.09
13796;SHT30;40911;51.552;9.874;2023-04-03T10:45:53;4.75;62.62
13796;SHT30;40911;51.552;9.874;2023-04-03T10:48:25;4.80;63.38
13796;SHT30;40911;51.552;9.874;2023-04-03T10:50:56;4.89;63.95
13796;SHT30;40911;51.552;9.874;2023-04-03T10:53:26;5.24;62.73
13796;SHT30;40911;51.552;9.874;2023-04-03T10:56:01;5.51;62.30
13796;SHT30;40911;51.552;9.874;2023-04-03T10:58:30;5.39;61.03
13796;SHT30;40911;51.552;9.874;2023-04-03T11:00:55;5.44;61.39
13796;SHT30;40911;51.552;9.874;2023-04-03T11:03:29;5.38;60.04
13796;SHT30;40911;51.552;9.874;2023-04-03T11:05:53;5.45;59.46
13796;SHT30;40911;51.552;9.874;2023-04-03T11:08:24;5.44;59.06
13796;SHT30;40911;51.552;9.874;2023-04-03T11:10:49;5.46;59.91
13796;SHT30;40911;51.552;9.874;2023-04-03T11:13:14;5.61;59.90
13796;SHT30;40911;51.552;9.874;2023-04-03T11:15:37;5.55;58.13
13796;SHT30;40911;51.552;9.874;2023-04-03T11:18:00;5.85;59.04
13796;SHT30;40911;51.552;9.874;2023-04-03T11:20:26;7.21;58.98
13796;SHT30;40911;51.552;9.874;2023-04-03T11:22:57;7.07;57.11
13796;SHT30;40911;51.552;9.874;2023-04-03T11:25:22;7.44;55.76
13796;SHT30;40911;51.552;9.874;2023-04-03T11:27:48;7.97;55.76
13796;SHT30;40911;51.552;9.874;2023-04-03T11:30:17;7.78;56.28
13796;SHT30;40911;51.552;9.874;2023-04-03T11:32:53;7.23;56.21
13796;SHT30;40911;51.552;9.874;2023-04-03T11:35:19;6.76;57.50
13796;SHT30;40911;51.552;9.874;2023-04-03T11:37:44;6.95;59.63
13796;SHT30;40911;51.552;9.874;2023-04-03T11:40:19;6.38;60.29
13796;SHT30;40911;51.552;9.874;2023-04-03T11:42:46;6.11;60.24
13796;SHT30;40911;51.552;9.874;2023-04-03T11:45:31;6.30;60.98
13796;SHT30;40911;51.552;9.874;2023-04-03T11:47:55;6.07;61.19
13796;SHT30;40911;51.552;9.874;2023-04-03T11:50:32;5.48;59.57
13796;SHT30;40911;51.552;9.874;2023-04-03T11:53:29;5.96;59.17
13796;SHT30;40911;51.552;9.874;2023-04-03T11:56:31;6.16;59.27
13796;SHT30;40911;51.552;9.874;2023-04-03T11:59:23;7.70;57.52
13796;SHT30;40911;51.552;9.874;2023-04-03T12:01:46;7.03;55.00
13796;SHT30;40911;51.552;9.874;2023-04-03T12:04:10;6.76;57.26
13796;SHT30;40911;51.552;9.874;2023-04-03T12:09:56;6.30;58.23
13796;SHT30;40911;51.552;9.874;2023-04-03T12:12:30;6.21;58.87
13796;SHT30;40911;51.552;9.874;2023-04-03T12:14:52;6.06;59.30
13796;SHT30;40911;51.552;9.874;2023-04-03T12:17:21;6.04;59.71
13796;SHT30;40911;51.552;9.874;2023-04-03T12:19:43;6.69;59.05
13796;SHT30;40911;51.552;9.874;2023-04-03T12:22:16;6.27;59.17
13796;SHT30;40911;51.552;9.874;2023-04-03T12:24:42;6.46;57.56
13796;SHT30;40911;51.552;9.874;2023-04-03T12:27:29;7.20;57.75
13796;SHT30;40911;51.552;9.874;2023-04-03T12:30:00;7.03;55.84
13796;SHT30;40911;51.552;9.874;2023-04-03T12:32:34;6.96;55.30
13796;SHT30;40911;51.552;9.874;2023-04-03T12:35:07;7.82;56.25
13796;SHT30;40911;51.552;9.874;2023-04-03T12:37:44;7.66;55.51
13796;SHT30;40911;51.552;9.874;2023-04-03T12:40:16;7.03;55.14
13796;SHT30;40911;51.552;9.874;2023-04-03T12:42:56;7.93;53.61
13796;SHT30;40911;51.552;9.874;2023-04-03T12:45:25;7.69;53.91
13796;SHT30;40911;51.552;9.874;2023-04-03T12:47:48;7.87;54.32
13796;SHT30;40911;51.552;9.874;2023-04-03T12:50:20;7.26;55.48
13796;SHT30;40911;51.552;9.874;2023-04-03T12:52:45;8.24;54.22
13796;SHT30;40911;51.552;9.874;2023-04-03T12:55:17;7.66;56.07
13796;SHT30;40911;51.552;9.874;2023-04-03T12:57:39;8.17;56.09
13796;SHT30;40911;51.552;9.874;2023-04-03T13:00:19;7.63;56.99
13796;SHT30;40911;51.552;9.874;2023-04-03T13:02:44;7.01;56.72
13796;SHT30;40911;51.552;9.874;2023-04-03T13:05:08;6.75;56.70
13796;SHT30;40911;51.552;9.874;2023-04-03T13:07:32;6.78;55.96
13796;SHT30;40911;51.552;9.874;2023-04-03T13:09:56;8.09;56.15
13796;SHT30;40911;51.552;9.874;2023-04-03T13:12:19;8.16;54.53
13796;SHT30;40911;51.552;9.874;2023-04-03T13:14:51;7.89;53.69
13796;SHT30;40911;51.552;9.874;2023-04-03T13:17:16;7.78;55.26
13796;SHT30;40911;51.552;9.874;2023-04-03T13:19:38;7.06;56.96
13796;SHT30;40911;51.552;9.874;2023-04-03T13:22:02;6.78;57.83
13796;SHT30;40911;51.552;9.874;2023-04-03T13:24:25;6.67;59.34
13796;SHT30;40911;51.552;9.874;2023-04-03T13:26:47;6.38;59.45
13796;SHT30;40911;51.552;9.874;2023-04-03T13:29:22;6.23;59.88
13796;SHT30;40911;51.552;9.874;2023-04-03T13:31:44;6.42;59.14
13796;SHT30;40911;51.552;9.874;2023-04-03T13:34:09;7.23;57.95
13796;SHT30;40911;51.552;9.874;2023-04-03T13:36:33;6.52;57.60
13796;SHT30;40911;51.552;9.874;2023-04-03T13:39:03;7.07;56.61
13796;SHT30;40911;51.552;9.874;2023-04-03T13:41:30;7.49;55.56
13796;SHT30;40911;51.552;9.874;2023-04-03T13:43:52;7.45;55.51
13796;SHT30;40911;51.552;9.874;2023-04-03T13:46:23;7.66;54.84
13796;SHT30;40911;51.552;9.874;2023-04-03T13:48:47;7.68;54.65
13796;SHT30;40911;51.552;9.874;2023-04-03T13:51:21;7.79;54.38
13796;SHT30;40911;51.552;9.874;2023-04-03T13:53:46;8.66;53.58
13796;SHT30;40911;51.552;9.874;2023-04-03T13:56:14;7.78;52.92
13796;SHT30;40911;51.552;9.874;2023-04-03T13:58:37;7.69;54.42
13796;SHT30;40911;51.552;9.874;2023-04-03T14:01:05;7.45;54.72
13796;SHT30;40911;51.552;9.874;2023-04-03T14:03:31;8.23;54.50
13796;SHT30;40911;51.552;9.874;2023-04-03T14:05:53;8.28;54.21
13796;SHT30;40911;51.552;9.874;2023-04-03T14:08:16;8.99;53.56
13796;SHT30;40911;51.552;9.874;2023-04-03T14:10:38;9.00;52.84
13796;SHT30;40911;51.552;9.874;2023-04-03T14:13:00;8.73;51.86
13796;SHT30;40911;51.552;9.874;2023-04-03T14:15:24;8.41;51.96
13796;SHT30;40911;51.552;9.874;2023-04-03T14:17:47;8.92;52.60
13796;SHT30;40911;51.552;9.874;2023-04-03T14:20:14;7.93;54.68
13796;SHT30;40911;51.552;9.874;2023-04-03T14:22:35;7.47;55.58
13796;SHT30;40911;51.552;9.874;2023-04-03T14:24:58;7.32;57.44
13796;SHT30;40911;51.552;9.874;2023-04-03T14:27:21;7.27;57.49
13796;SHT30;40911;51.552;9.874;2023-04-03T14:29:44;6.88;58.06
13796;SHT30;40911;51.552;9.874;2023-04-03T14:32:05;6.51;57.91
13796;SHT30;40911;51.552;9.874;2023-04-03T14:34:27;6.49;57.03
13796;SHT30;40911;51.552;9.874;2023-04-03T14:36:49;6.96;57.42
13796;SHT30;40911;51.552;9.874;2023-04-03T14:39:17;7.35;54.53
13796;SHT30;40911;51.552;9.874;2023-04-03T14:41:40;7.99;53.61
13796;SHT30;40911;51.552;9.874;2023-04-03T14:44:02;8.00;53.06
13796;SHT30;40911;51.552;9.874;2023-04-03T14:46:28;8.48;52.20
13796;SHT30;40911;51.552;9.874;2023-04-03T14:48:50;8.34;52.46
13796;SHT30;40911;51.552;9.874;2023-04-03T14:51:12;9.06;52.83
13796;SHT30;40911;51.552;9.874;2023-04-03T14:53:34;8.17;51.73
13796;SHT30;40911;51.552;9.874;2023-04-03T14:55:57;7.31;52.62
13796;SHT30;40911;51.552;9.874;2023-04-03T14:58:20;7.54;54.01
13796;SHT30;40911;51.552;9.874;2023-04-03T15:00:43;7.21;55.91
13796;SHT30;40911;51.552;9.874;2023-04-03T15:03:05;6.72;57.14
13796;SHT30;40911;51.552;9.874;2023-04-03T15:05:26;6.75;57.39
13796;SHT30;40911;51.552;9.874;2023-04-03T15:07:50;6.68;57.98
13796;SHT30;40911;51.552;9.874;2023-04-03T15:10:16;6.41;57.20
13796;SHT30;40911;51.552;9.874;2023-04-03T15:12:38;6.31;56.00
13796;SHT30;40911;51.552;9.874;2023-04-03T15:15:01;6.55;56.47
13796;SHT30;40911;51.552;9.874;2023-04-03T15:17:23;7.00;56.41
13796;SHT30;40911;51.552;9.874;2023-04-03T15:19:46;7.97;53.95
13796;SHT30;40911;51.552;9.874;2023-04-03T15:22:13;8.34;52.88
13796;SHT30;40911;51.552;9.874;2023-04-03T15:24:34;7.92;54.71
13796;SHT30;40911;51.552;9.874;2023-04-03T15:26:56;7.06;54.21